»·PEaware :: DAL1829 KPSP-KEGE

DAL1829 :: KPSP-KEGE

FLIGHT INFORMATION

Flight Status: Arrived
Operator:
Delta Air Lines
More flights by this operator :: More flights under this callsign
Pilot: Will K. (13011)
Aircraft: BOEING 737-800
(B738)
More flights by this aircraft type
Origin: KPSP Palm Springs Intl
United States
Destination: KEGE Eagle Co Regl
United States
More flights between these airports :: More routes between these airports
Route: +CATH1 PSP V370 TNP JOTNU ZELMA HAKMN NOOTN DICEE DVC JNC JESIE RLG
File this flight plan on PilotEdge
Remarks:
Altitude:
(Current/Filed)
35,000ft
Speed:
(Current/Filed)
320kts
Departed: 16-Apr-18 04:48 PM
Arrived: 16-Apr-18 06:27 PM
Distance/Time
Traveled:
578nm/1:39
Distance/Time
To Go:
Arrived

Flight Plot

Page will automatically refresh every two minutes.

Flight plan parsing failed; only flown route is shown


Map Options




Map Legend


Flown Route
Filed Route
Departure Airport
Arrival Airport
Navaid (VOR, NDB)
Fix

Horizontal Profiles

Position Reports

Time Latitude Longitude Heading Altitude Ground
Speed
16-Apr-18 15:51 33.821781 -116.507046 225 484ft 0kts
16-Apr-18 15:52 33.821781 -116.507046 225 484ft 0kts
16-Apr-18 15:53 33.821781 -116.507046 225 485ft 0kts
16-Apr-18 15:54 33.821781 -116.507046 225 485ft 0kts
16-Apr-18 15:55 33.821781 -116.507046 225 485ft 0kts
16-Apr-18 15:56 33.821781 -116.507046 225 485ft 0kts
16-Apr-18 15:57 33.821781 -116.507046 225 485ft 0kts
16-Apr-18 15:58 33.821781 -116.507046 225 485ft 0kts
16-Apr-18 15:59 33.821781 -116.507046 225 485ft 0kts
16-Apr-18 16:00 33.821781 -116.507046 225 485ft 0kts
16-Apr-18 16:01 33.821781 -116.507046 225 485ft 0kts
16-Apr-18 16:02 33.821781 -116.507046 225 485ft 0kts
16-Apr-18 16:03 33.821781 -116.507046 225 485ft 0kts
16-Apr-18 16:04 33.821781 -116.507046 225 485ft 0kts
16-Apr-18 16:05 33.821781 -116.507046 225 485ft 0kts
16-Apr-18 16:06 33.821781 -116.507046 225 485ft 0kts
16-Apr-18 16:07 33.821781 -116.507046 225 485ft 0kts
16-Apr-18 16:08 33.821781 -116.507046 225 485ft 0kts
16-Apr-18 16:09 33.821781 -116.507046 225 485ft 0kts
16-Apr-18 16:10 33.821781 -116.507046 225 485ft 0kts
16-Apr-18 16:11 33.821781 -116.507046 225 485ft 0kts
16-Apr-18 16:12 33.821781 -116.507046 225 485ft 0kts
16-Apr-18 16:13 33.821781 -116.507046 225 485ft 0kts
16-Apr-18 16:14 33.821781 -116.507046 225 485ft 0kts
16-Apr-18 16:15 33.821781 -116.507046 225 485ft 0kts
16-Apr-18 16:16 33.821781 -116.507046 225 485ft 0kts
16-Apr-18 16:17 33.821781 -116.507046 225 485ft 0kts
16-Apr-18 16:18 33.821781 -116.507046 225 485ft 0kts
16-Apr-18 16:19 33.821781 -116.507046 225 485ft 0kts
16-Apr-18 16:20 33.821781 -116.507046 225 485ft 0kts
16-Apr-18 16:21 33.821781 -116.507046 225 485ft 0kts
16-Apr-18 16:22 33.821781 -116.507046 225 485ft 0kts
16-Apr-18 16:23 33.821781 -116.507046 225 485ft 0kts
16-Apr-18 16:24 33.821781 -116.507046 225 485ft 0kts
16-Apr-18 16:25 33.821781 -116.507046 225 485ft 0kts
16-Apr-18 16:26 33.821781 -116.507046 225 485ft 0kts
16-Apr-18 16:27 33.821781 -116.507046 225 485ft 0kts
16-Apr-18 16:28 33.821781 -116.507046 225 485ft 0kts
16-Apr-18 16:29 33.821781 -116.507046 225 485ft 0kts
16-Apr-18 16:30 33.821781 -116.507046 225 485ft 0kts
16-Apr-18 16:31 33.821781 -116.507046 225 485ft 0kts
16-Apr-18 16:32 33.821781 -116.507046 225 485ft 0kts
16-Apr-18 16:33 33.821781 -116.507046 225 485ft 0kts
16-Apr-18 16:34 33.821781 -116.507046 225 485ft 0kts
16-Apr-18 16:35 33.821781 -116.507046 225 485ft 0kts
16-Apr-18 16:36 33.821808 -116.507014 226 485ft 1kts
16-Apr-18 16:37 33.821823 -116.506375 305 485ft 2kts
16-Apr-18 16:38 33.821737 -116.506235 305 485ft 0kts
16-Apr-18 16:39 33.821737 -116.506235 305 485ft 0kts
16-Apr-18 16:40 33.821737 -116.506235 305 485ft 0kts
16-Apr-18 16:41 33.821249 -116.506100 179 484ft 14kts
16-Apr-18 16:42 33.819671 -116.504609 90 485ft 14kts
16-Apr-18 16:43 33.819629 -116.500955 105 485ft 7kts
16-Apr-18 16:44 33.818540 -116.499163 89 484ft 3kts
16-Apr-18 16:45 33.818540 -116.499146 89 485ft 0kts
16-Apr-18 16:46 33.819158 -116.498321 325 485ft 0kts
16-Apr-18 16:47 33.831765 -116.509523 322 500ft 163kts
16-Apr-18 16:48 33.872158 -116.545190 329 3044ft 204kts
16-Apr-18 16:49 33.917567 -116.509048 90 5059ft 267kts
16-Apr-18 16:50 33.873863 -116.434694 131 7638ft 289kts
16-Apr-18 16:51 33.834181 -116.345961 120 10563ft 312kts
16-Apr-18 16:52 33.856592 -116.236233 48 11917ft 403kts
16-Apr-18 16:53 33.936589 -116.096195 57 13571ft 455kts
16-Apr-18 16:54 34.006680 -115.966629 58 15899ft 469kts
16-Apr-18 16:55 34.066709 -115.854806 58 17653ft 481kts
16-Apr-18 16:56 34.149543 -115.725849 42 19526ft 496kts
16-Apr-18 16:57 34.252591 -115.612164 41 21236ft 509kts
16-Apr-18 16:58 34.367153 -115.509874 21 22745ft 515kts
16-Apr-18 16:59 34.502661 -115.451809 14 24054ft 522kts
16-Apr-18 17:00 34.641744 -115.391947 15 25169ft 535kts
16-Apr-18 17:01 34.783115 -115.330030 14 26232ft 544kts
16-Apr-18 17:02 34.927802 -115.279599 9 27620ft 542kts
16-Apr-18 17:03 35.073439 -115.230060 10 29001ft 543kts
16-Apr-18 17:04 35.218644 -115.180164 9 30390ft 543kts
16-Apr-18 17:05 35.363898 -115.129880 9 31688ft 543kts
16-Apr-18 17:06 35.506756 -115.066883 28 32881ft 557kts
16-Apr-18 17:07 35.613212 -114.929314 54 33987ft 560kts
16-Apr-18 17:08 35.708294 -114.776441 52 34721ft 564kts
16-Apr-18 17:09 35.805868 -114.625971 52 34726ft 562kts
16-Apr-18 17:10 35.903570 -114.475644 52 34739ft 563kts
16-Apr-18 17:11 36.001637 -114.324211 52 34742ft 563kts
16-Apr-18 17:12 36.099317 -114.172730 52 34748ft 564kts
16-Apr-18 17:13 36.197158 -114.020323 52 34752ft 564kts
16-Apr-18 17:14 36.294477 -113.868047 52 34767ft 564kts
16-Apr-18 17:15 36.391587 -113.715412 52 34809ft 564kts
16-Apr-18 17:16 36.488987 -113.562017 52 34805ft 564kts
16-Apr-18 17:17 36.585501 -113.408638 52 34818ft 563kts
16-Apr-18 17:18 36.660316 -113.239808 74 34826ft 555kts
16-Apr-18 17:19 36.709640 -113.057475 75 34838ft 554kts
16-Apr-18 17:20 36.760697 -112.876404 74 34860ft 554kts
16-Apr-18 17:21 36.812519 -112.694967 74 34870ft 554kts
16-Apr-18 17:22 36.863865 -112.513763 74 34885ft 554kts
16-Apr-18 17:23 36.914977 -112.332327 75 34905ft 558kts
16-Apr-18 17:24 36.966177 -112.148941 75 34879ft 557kts
16-Apr-18 17:25 37.016907 -111.966089 75 34860ft 557kts
16-Apr-18 17:26 37.067387 -111.782967 75 34861ft 557kts
16-Apr-18 17:27 37.117762 -111.599036 75 34847ft 557kts
16-Apr-18 17:28 37.167751 -111.415777 75 34843ft 556kts
16-Apr-18 17:29 37.221084 -111.232878 66 34843ft 562kts
16-Apr-18 17:30 37.318270 -111.079109 45 34856ft 566kts
16-Apr-18 17:31 37.428739 -110.938485 44 34861ft 566kts
16-Apr-18 17:32 37.540467 -110.798538 41 34863ft 565kts
16-Apr-18 17:33 37.652991 -110.660350 44 34868ft 566kts
16-Apr-18 17:34 37.764454 -110.520575 42 34869ft 566kts
16-Apr-18 17:35 37.876435 -110.379981 42 34869ft 566kts
16-Apr-18 17:36 37.987595 -110.239097 43 34867ft 566kts
16-Apr-18 17:37 38.098867 -110.097247 44 34866ft 566kts
16-Apr-18 17:38 38.209572 -109.955317 43 34862ft 566kts
16-Apr-18 17:39 38.319885 -109.812643 43 34852ft 566kts
16-Apr-18 17:40 38.430170 -109.669098 43 34844ft 565kts
16-Apr-18 17:41 38.540255 -109.526265 44 34829ft 565kts
16-Apr-18 17:42 38.649683 -109.381670 44 34844ft 564kts
16-Apr-18 17:43 38.757791 -109.236608 45 34860ft 564kts
16-Apr-18 17:44 38.864523 -109.089603 50 34852ft 564kts
16-Apr-18 17:45 38.957924 -108.927589 46 34868ft 564kts
16-Apr-18 17:46 39.065172 -108.781179 50 34866ft 564kts
16-Apr-18 17:47 39.152593 -108.613749 57 34868ft 564kts
16-Apr-18 17:48 39.238769 -108.444087 57 34871ft 565kts
16-Apr-18 17:49 39.325548 -108.274852 57 34505ft 570kts
16-Apr-18 17:50 39.412383 -108.104264 57 33503ft 565kts
16-Apr-18 17:51 39.498252 -107.934489 56 32505ft 562kts
16-Apr-18 17:52 39.583497 -107.765045 57 31506ft 561kts
16-Apr-18 17:53 39.668485 -107.595174 56 30505ft 559kts
16-Apr-18 17:54 39.752484 -107.426380 56 28256ft 555kts
16-Apr-18 17:55 39.835677 -107.258307 56 24885ft 542kts
16-Apr-18 17:56 39.913094 -107.101661 56 24139ft 487kts
16-Apr-18 17:57 39.982902 -106.958823 57 21315ft 472kts
16-Apr-18 17:58 40.025593 -106.803083 93 19800ft 438kts
16-Apr-18 17:59 40.013719 -106.649278 99 17840ft 419kts
16-Apr-18 18:00 39.951512 -106.548490 178 15701ft 362kts
16-Apr-18 18:01 39.862960 -106.575677 202 15113ft 290kts
16-Apr-18 18:02 39.794140 -106.605504 201 15100ft 236kts
16-Apr-18 18:03 39.731383 -106.629529 200 14552ft 234kts
16-Apr-18 18:04 39.684130 -106.677373 248 13526ft 222kts
16-Apr-18 18:05 39.664917 -106.753487 253 11531ft 246kts
16-Apr-18 18:06 39.652702 -106.850047 259 8421ft 290kts
16-Apr-18 18:07 39.640881 -106.940138 264 7745ft 180kts
16-Apr-18 18:08 39.631958 -106.995462 254 8829ft 153kts
16-Apr-18 18:09 39.638636 -107.058584 325 10785ft 239kts
16-Apr-18 18:10 39.715491 -107.051588 15 12734ft 323kts
16-Apr-18 18:11 39.803971 -107.004361 21 14627ft 351kts
16-Apr-18 18:12 39.890497 -106.953463 21 14643ft 337kts
16-Apr-18 18:13 39.975988 -106.902975 22 14632ft 337kts
16-Apr-18 18:14 40.013589 -106.802032 109 14624ft 322kts
16-Apr-18 18:15 39.956444 -106.725849 153 14630ft 282kts
16-Apr-18 18:16 39.895268 -106.674274 155 14631ft 237kts
16-Apr-18 18:17 39.843604 -106.630766 155 14661ft 216kts
16-Apr-18 18:18 39.799128 -106.613358 212 14243ft 151kts
16-Apr-18 18:19 39.764498 -106.645097 219 12330ft 137kts
16-Apr-18 18:20 39.733605 -106.676124 219 11503ft 144kts
16-Apr-18 18:21 39.701863 -106.708365 219 10636ft 146kts
16-Apr-18 18:22 39.668513 -106.744423 234 9777ft 166kts
16-Apr-18 18:23 39.658074 -106.800086 257 8737ft 152kts
16-Apr-18 18:24 39.651527 -106.853326 258 7605ft 147kts
16-Apr-18 18:25 39.644000 -106.904767 258 6541ft 139kts
16-Apr-18 18:26 39.641346 -106.927680 233 6523ft 9kts
16-Apr-18 18:27 39.640887 -106.922861 80 6523ft 18kts
16-Apr-18 18:28 39.641601 -106.916211 91 6523ft 10kts
16-Apr-18 18:29 39.640585 -106.915464 172 6523ft 0kts
16-Apr-18 18:30 39.640584 -106.915464 172 6523ft 0kts
16-Apr-18 18:31 39.640584 -106.915464 172 6523ft 0kts
16-Apr-18 18:32 39.640584 -106.915464 172 6523ft 0kts
16-Apr-18 18:33 39.640584 -106.915464 172 6523ft 0kts

Navigation Log

Ident Type
Flight plan parsing failed, navigation log unavailable